Time;durP1;ratioP1;P1;durP2;ratioP2;P2;SDS_P1;SDS_P2;PMS_P1;PMS_P2;Temp;Humidity;BMP_temperature;BMP_pressure;BME280_temperature;BME280_humidity;BME280_pressure;Samples;Min_cycle;Max_cycle;Signal;HPM_P1;HPM_P2
2022/01/01 00:02:07;;;;;;;8.50;4.88;;;;;;;20.00;58.90;102245.38;5014302;28;20424;-69
2022/01/01 00:04:32;;;;;;;9.70;5.28;;;;;;;19.98;58.90;102250.75;5013412;28;20461;-70
2022/01/01 00:06:57;;;;;;;13.10;5.27;;;;;;;19.97;58.98;102254.34;5014285;28;20543;-70
2022/01/01 00:09:31;;;;;;;8.30;5.28;;;;;;;19.94;58.92;102262.50;5013965;28;20299;-69
2022/01/01 00:11:59;;;;;;;9.40;5.38;;;;;;;19.92;58.95;102267.03;5013620;28;20045;-70
2022/01/01 00:14:25;;;;;;;10.73;5.72;;;;;;;19.89;58.93;102268.09;5014298;28;20030;-69
2022/01/01 00:16:50;;;;;;;10.65;5.78;;;;;;;19.88;59.19;102273.47;5013890;28;20121;-70
2022/01/01 00:19:16;;;;;;;12.07;5.68;;;;;;;19.85;59.23;102266.63;5012542;28;20030;-69
2022/01/01 00:21:41;;;;;;;10.68;5.97;;;;;;;19.83;59.23;102265.00;5013709;28;20124;-70
2022/01/01 00:24:07;;;;;;;10.43;6.20;;;;;;;19.82;59.50;102265.94;5013748;28;20045;-70
2022/01/01 00:26:32;;;;;;;9.23;6.00;;;;;;;19.79;59.17;102274.94;5012716;28;20045;-70
2022/01/01 00:28:57;;;;;;;10.38;6.43;;;;;;;19.78;59.15;102275.06;5013772;28;20056;-70
2022/01/01 00:31:23;;;;;;;13.60;7.90;;;;;;;19.76;59.36;102277.78;5013624;28;20038;-70
2022/01/01 00:33:51;;;;;;;11.90;7.93;;;;;;;19.74;59.33;102271.69;5012859;28;20286;-69
2022/01/01 00:36:16;;;;;;;11.07;6.80;;;;;;;19.72;59.54;102271.81;5013553;28;20437;-70
2022/01/01 00:38:41;;;;;;;11.93;7.35;;;;;;;19.71;59.45;102271.91;5013250;28;20099;-70
2022/01/01 00:41:06;;;;;;;9.83;6.63;;;;;;;19.69;59.68;102277.31;5012947;28;20069;-69
2022/01/01 00:43:32;;;;;;;11.43;6.63;;;;;;;19.68;59.31;102272.97;5013416;28;20287;-69
2022/01/01 00:45:57;;;;;;;11.02;7.00;;;;;;;19.66;59.74;102268.72;5013679;28;20743;-70
2022/01/01 00:48:22;;;;;;;11.68;6.25;;;;;;;19.64;59.53;102267.97;5012802;28;20041;-69
2022/01/01 00:50:47;;;;;;;11.87;6.33;;;;;;;19.63;59.68;102264.50;5013233;28;20066;-69
2022/01/01 00:53:14;;;;;;;9.80;6.35;;;;;;;19.61;59.46;102255.78;5012579;28;20271;-69
2022/01/01 00:55:39;;;;;;;10.95;6.95;;;;;;;19.60;59.52;102261.19;5013323;28;20025;-69
2022/01/01 00:58:04;;;;;;;11.68;6.90;;;;;;;19.58;59.67;102261.28;5013485;28;20083;-69
2022/01/01 01:00:30;;;;;;;11.38;6.28;;;;;;;19.56;59.55;102271.97;5012291;28;20497;-69
2022/01/01 01:02:58;;;;;;;10.10;5.88;;;;;;;19.55;59.72;102269.41;5013506;28;20037;-69
2022/01/01 01:05:23;;;;;;;13.02;6.50;;;;;;;19.53;59.66;102274.81;5014195;28;20030;-66
2022/01/01 01:07:49;;;;;;;11.82;6.55;;;;;;;19.52;59.74;102270.47;5013917;28;20401;-69
2022/01/01 01:10:14;;;;;;;10.95;6.25;;;;;;;19.51;59.93;102274.06;5013533;28;20029;-69
2022/01/01 01:12:46;;;;;;;10.07;6.68;;;;;;;19.47;59.83;102269.94;5013087;28;20025;-69
2022/01/01 01:15:24;;;;;;;12.55;6.78;;;;;;;19.48;59.91;102271.59;5012497;28;20116;-69
2022/01/01 01:17:51;;;;;;;13.90;6.40;;;;;;;19.47;59.99;102279.63;5012967;28;20478;-69
2022/01/01 01:20:17;;;;;;;11.20;5.93;;;;;;;19.46;59.93;102267.38;5013020;28;20030;-69
2022/01/01 01:22:43;;;;;;;10.30;5.95;;;;;;;19.45;60.01;102273.63;5012209;28;20050;-69
2022/01/01 01:25:09;;;;;;;12.18;6.30;;;;;;;19.44;60.17;102272.78;5012943;28;20045;-69
2022/01/01 01:27:36;;;;;;;11.55;6.05;;;;;;;19.41;60.11;102275.63;5013048;28;20077;-69
2022/01/01 01:30:04;;;;;;;10.82;6.10;;;;;;;19.40;59.92;102274.75;5013285;28;20129;-69
2022/01/01 01:32:31;;;;;;;9.98;6.30;;;;;;;19.39;59.93;102272.19;5019615;28;20049;-69
2022/01/01 01:34:59;;;;;;;9.02;5.65;;;;;;;19.39;60.07;102272.19;5020562;28;20053;-70
2022/01/01 01:37:28;;;;;;;11.50;5.72;;;;;;;19.37;60.21;102269.66;5019912;28;20088;-70
2022/01/01 01:39:55;;;;;;;11.10;6.18;;;;;;;19.35;60.22;102279.47;5020433;28;20029;-69
2022/01/01 01:42:20;;;;;;;11.82;5.95;;;;;;;19.36;60.39;102278.56;5020033;28;20106;-68
2022/01/01 01:44:48;;;;;;;12.52;5.82;;;;;;;19.35;60.25;102281.28;5020292;28;20062;-69
2022/01/01 01:47:17;;;;;;;10.13;5.60;;;;;;;19.32;60.26;102290.25;5022449;28;20046;-69
2022/01/01 01:49:44;;;;;;;10.55;6.20;;;;;;;19.31;60.29;102299.16;5023738;28;20112;-69
2022/01/01 01:52:11;;;;;;;10.73;5.43;;;;;;;19.31;60.17;102307.06;5022837;28;20025;-70
2022/01/01 01:54:37;;;;;;;9.75;5.57;;;;;;;19.31;60.17;102303.56;5023279;28;20018;-69
2022/01/01 01:57:03;;;;;;;9.07;5.28;;;;;;;19.28;60.23;102303.75;5022013;28;20018;-69
2022/01/01 01:59:28;;;;;;;11.43;5.90;;;;;;;19.29;60.30;102302.81;5022639;28;20064;-69
2022/01/01 02:01:59;;;;;;;8.90;5.32;;;;;;;19.27;60.37;102304.72;5022222;28;20034;-69
2022/01/01 02:04:25;;;;;;;8.95;5.20;;;;;;;19.26;60.31;102303.00;5022755;28;20128;-69
2022/01/01 02:06:50;;;;;;;9.33;5.43;;;;;;;19.26;60.03;102303.00;5022289;28;20101;-69
2022/01/01 02:09:16;;;;;;;9.97;5.27;;;;;;;19.25;60.48;102301.31;5022339;28;20302;-70
2022/01/01 02:11:41;;;;;;;9.35;5.43;;;;;;;19.23;60.11;102304.03;5018410;28;20291;-69
2022/01/01 02:14:24;;;;;;;11.60;5.28;;;;;;;19.23;60.56;102301.41;5019387;28;20076;-70
2022/01/01 02:17:08;;;;;;;11.82;5.40;;;;;;;19.23;60.33;102305.84;5021991;28;20038;-69
2022/01/01 02:19:44;;;;;;;7.13;4.65;;;;;;;19.21;60.48;102306.78;5018476;28;20117;-69
2022/01/01 02:22:11;;;;;;;9.50;5.07;;;;;;;19.21;60.58;102295.38;5019097;28;20108;-69
2022/01/01 02:24:36;;;;;;;9.68;5.18;;;;;;;19.19;60.97;102295.47;5018049;28;20030;-69
2022/01/01 02:27:02;;;;;;;10.30;5.47;;;;;;;19.18;60.46;102290.28;5019095;28;20393;-69
2022/01/01 02:29:27;;;;;;;8.55;5.07;;;;;;;19.18;60.56;102290.28;5018992;28;20548;-69
2022/01/01 02:31:53;;;;;;;10.73;5.53;;;;;;;19.16;60.27;102287.72;5018187;28;20034;-69
2022/01/01 02:34:19;;;;;;;8.75;4.90;;;;;;;19.17;60.39;102291.25;5018978;28;20382;-69
2022/01/01 02:36:47;;;;;;;10.18;4.95;;;;;;;19.15;60.43;102291.34;5018616;28;20022;-69
2022/01/01 02:39:15;;;;;;;9.38;5.25;;;;;;;19.15;60.55;102293.97;5018087;28;20477;-69
2022/01/01 02:41:42;;;;;;;11.60;5.25;;;;;;;19.14;60.65;102292.28;5017816;28;20021;-69
2022/01/01 02:44:07;;;;;;;9.73;5.15;;;;;;;19.14;60.66;102291.44;5015908;28;20066;-69
2022/01/01 02:46:34;;;;;;;9.77;5.25;;;;;;;19.13;60.43;102292.38;5014881;28;20116;-69
2022/01/01 02:48:59;;;;;;;8.70;4.88;;;;;;;19.13;60.56;102287.09;5015792;28;20025;-69
2022/01/01 02:51:25;;;;;;;9.27;4.75;;;;;;;19.12;60.72;102286.25;5015704;28;20425;-69
2022/01/01 02:53:50;;;;;;;11.90;5.50;;;;;;;19.11;60.58;102283.69;5014611;28;20034;-69
2022/01/01 02:56:15;;;;;;;9.83;5.30;;;;;;;19.10;60.34;102282.00;5015493;28;20076;-69
2022/01/01 02:58:41;;;;;;;8.80;4.90;;;;;;;19.10;60.60;102274.91;5015378;28;20279;-70
2022/01/01 03:01:07;;;;;;;8.30;4.72;;;;;;;19.08;60.77;102268.88;5014715;28;20417;-69
2022/01/01 03:03:42;;;;;;;11.13;5.45;;;;;;;19.08;60.88;102266.22;5014968;28;20025;-68
2022/01/01 03:06:08;;;;;;;8.73;5.00;;;;;;;19.08;60.54;102265.41;5015429;28;20030;-69
2022/01/01 03:08:33;;;;;;;9.48;5.15;;;;;;;19.07;60.84;102268.97;5014017;28;20041;-69
2022/01/01 03:11:00;;;;;;;9.68;4.90;;;;;;;19.07;60.79;102263.69;5015655;28;20029;-69
2022/01/01 03:13:25;;;;;;;8.27;5.07;;;;;;;19.06;60.75;102268.13;5015397;28;20080;-70
2022/01/01 03:15:51;;;;;;;8.18;5.10;;;;;;;19.06;60.62;102281.34;5014286;28;20029;-70
2022/01/01 03:18:16;;;;;;;10.02;5.63;;;;;;;19.05;60.99;102269.06;5015237;28;20042;-69
2022/01/01 03:20:41;;;;;;;9.20;4.93;;;;;;;19.03;60.79;102269.16;5014889;28;20029;-69
2022/01/01 03:23:07;;;;;;;8.57;4.53;;;;;;;19.04;60.74;102275.28;5014247;28;20422;-69
2022/01/01 03:25:32;;;;;;;9.60;4.72;;;;;;;19.03;61.01;102263.03;5014668;28;20049;-70
2022/01/01 03:27:57;;;;;;;9.95;5.13;;;;;;;19.02;60.81;102263.97;5014480;28;20105;-69
2022/01/01 03:30:23;;;;;;;9.95;5.90;;;;;;;19.02;60.83;102256.88;5015295;28;20131;-70
2022/01/01 03:32:48;;;;;;;8.73;5.03;;;;;;;18.99;60.78;102258.88;5014600;28;20029;-70
2022/01/01 03:35:14;;;;;;;10.05;5.13;;;;;;;19.01;60.74;102257.00;5014209;28;20109;-69
2022/01/01 03:37:39;;;;;;;8.13;4.60;;;;;;;18.99;60.83;102257.09;5014465;28;20041;-69
2022/01/01 03:40:05;;;;;;;7.72;4.30;;;;;;;18.99;60.89;102265.03;5014852;28;20054;-69
2022/01/01 03:42:30;;;;;;;10.00;5.10;;;;;;;18.98;60.83;102259.84;5013872;28;20030;-69
2022/01/01 03:44:56;;;;;;;8.85;4.68;;;;;;;18.98;60.98;102259.84;5014863;28;20021;-70
2022/01/01 03:47:21;;;;;;;9.27;4.32;;;;;;;18.96;60.87;102245.84;5014553;28;20084;-70
2022/01/01 03:49:46;;;;;;;9.33;5.17;;;;;;;18.98;60.62;102249.28;5013572;28;20045;-69
2022/01/01 03:52:12;;;;;;;8.45;4.35;;;;;;;18.98;60.67;102249.28;5014430;28;20809;-69
2022/01/01 03:54:37;;;;;;;8.73;4.70;;;;;;;18.97;60.64;102250.22;5013166;28;20058;-70
2022/01/01 03:57:02;;;;;;;7.75;4.53;;;;;;;18.96;60.84;102249.38;5013905;28;20484;-69
2022/01/01 03:59:28;;;;;;;10.00;5.00;;;;;;;18.95;60.68;102245.03;5014519;28;20022;-70
2022/01/01 04:01:55;;;;;;;8.02;4.43;;;;;;;18.94;60.79;102243.31;5014328;28;20394;-69
2022/01/01 04:04:22;;;;;;;8.10;4.18;;;;;;;18.95;60.84;102252.09;5013640;28;20042;-69
2022/01/01 04:06:51;;;;;;;7.68;4.50;;;;;;;18.94;60.78;102253.88;5013820;28;20041;-69
2022/01/01 04:09:16;;;;;;;8.70;4.30;;;;;;;18.92;60.54;102247.00;5014300;28;20029;-69
2022/01/01 04:11:42;;;;;;;7.38;4.30;;;;;;;18.92;60.86;102250.50;5013101;28;20087;-70
2022/01/01 04:14:12;;;;;;;7.97;4.20;;;;;;;18.92;60.68;102257.59;5014298;28;20025;-69
2022/01/01 04:16:37;;;;;;;7.38;4.22;;;;;;;18.91;60.60;102254.06;5013936;28;20026;-69
2022/01/01 04:19:02;;;;;;;8.30;4.40;;;;;;;18.91;60.79;102247.94;5013332;28;20034;-69
2022/01/01 04:21:28;;;;;;;7.40;3.90;;;;;;;18.91;60.81;102250.59;5013907;28;20030;-70
2022/01/01 04:23:53;;;;;;;6.75;4.20;;;;;;;18.90;60.85;102252.38;5013871;28;20784;-71
2022/01/01 04:26:19;;;;;;;8.60;4.10;;;;;;;18.89;60.73;102244.56;5013091;28;20046;-70
2022/01/01 04:28:44;;;;;;;8.07;4.25;;;;;;;18.90;60.75;102243.59;5013691;28;20065;-69
2022/01/01 04:31:09;;;;;;;7.65;4.45;;;;;;;18.89;60.79;102250.69;5013264;28;20121;-68
2022/01/01 04:33:40;;;;;;;8.45;4.22;;;;;;;18.88;60.87;102250.78;5013649;28;20112;-69
2022/01/01 04:36:06;;;;;;;8.00;4.10;;;;;;;18.87;60.64;102249.06;5013696;28;20109;-70
2022/01/01 04:38:39;;;;;;;8.13;4.00;;;;;;;18.87;60.69;102257.88;5012824;28;20109;-69
2022/01/01 04:41:07;;;;;;;7.18;3.85;;;;;;;18.84;60.76;102250.97;5013764;28;20275;-70
2022/01/01 04:43:32;;;;;;;7.22;3.78;;;;;;;18.86;60.77;102258.78;5013445;28;20385;-70
2022/01/01 04:45:57;;;;;;;7.47;3.83;;;;;;;18.85;60.69;102257.13;5012948;28;20101;-70
2022/01/01 04:48:23;;;;;;;7.57;3.80;;;;;;;18.84;60.74;102258.88;5013516;28;20049;-69
2022/01/01 04:50:48;;;;;;;8.07;3.92;;;;;;;18.84;60.82;102260.69;5013195;28;20969;-70
2022/01/01 04:53:17;;;;;;;7.90;3.83;;;;;;;18.83;60.69;102257.19;5012672;28;20064;-69
2022/01/01 04:55:42;;;;;;;7.43;3.75;;;;;;;18.83;60.66;102264.25;5013419;28;20030;-70
2022/01/01 04:58:10;;;;;;;7.70;3.90;;;;;;;18.83;60.83;102272.16;5013703;28;20481;-69
2022/01/01 05:00:36;;;;;;;8.57;4.25;;;;;;;18.82;60.67;102271.31;5012258;28;20025;-70
2022/01/01 05:03:01;;;;;;;7.43;4.10;;;;;;;18.82;60.69;102270.47;5013422;28;20048;-69
2022/01/01 05:05:27;;;;;;;9.20;4.18;;;;;;;18.82;60.62;102271.31;5013344;28;20038;-69
2022/01/01 05:07:52;;;;;;;7.00;3.90;;;;;;;18.80;60.58;102270.56;5012570;28;20022;-69
2022/01/01 05:10:17;;;;;;;10.43;4.00;;;;;;;18.79;60.27;102266.22;5013611;28;20291;-69
2022/01/01 05:12:42;;;;;;;9.30;4.07;;;;;;;18.79;60.43;102276.78;5013184;28;20022;-70
2022/01/01 05:15:09;;;;;;;8.23;3.80;;;;;;;18.78;60.67;102280.38;5012793;28;20050;-70
2022/01/01 05:17:35;;;;;;;6.80;3.80;;;;;;;18.80;60.75;102275.84;5013439;28;20049;-70
2022/01/01 05:20:00;;;;;;;8.80;4.10;;;;;;;18.79;60.55;102279.44;5013738;28;20030;-70
2022/01/01 05:22:29;;;;;;;6.82;3.65;;;;;;;18.79;60.86;102281.22;5012706;28;20470;-70
2022/01/01 05:24:59;;;;;;;7.15;4.00;;;;;;;18.77;60.63;102281.31;5013205;28;20095;-70
2022/01/01 05:27:34;;;;;;;7.70;3.55;;;;;;;18.77;60.56;102283.97;5012703;28;20042;-70
2022/01/01 05:30:00;;;;;;;6.40;3.83;;;;;;;18.77;60.71;102286.59;5012894;28;20030;-71
2022/01/01 05:32:26;;;;;;;7.30;3.88;;;;;;;18.79;60.65;102286.50;5012959;28;20026;-71
2022/01/01 05:34:51;;;;;;;6.97;3.72;;;;;;;18.77;60.51;102291.88;5012185;28;20096;-70
2022/01/01 05:37:16;;;;;;;9.13;3.83;;;;;;;18.77;60.44;102283.09;5013138;28;20117;-71
2022/01/01 05:39:45;;;;;;;7.53;3.58;;;;;;;18.76;60.54;102282.25;5012648;28;20283;-71
2022/01/01 05:42:10;;;;;;;7.70;3.55;;;;;;;18.75;60.50;102271.78;5012063;28;20022;-70
2022/01/01 05:44:35;;;;;;;7.70;3.60;;;;;;;18.76;60.55;102284.06;5012601;28;20045;-70
2022/01/01 05:47:00;;;;;;;7.60;3.70;;;;;;;18.74;60.52;102284.16;5012713;28;20088;-71
2022/01/01 05:49:26;;;;;;;7.55;3.65;;;;;;;18.75;60.53;102285.00;5011955;28;20353;-70
2022/01/01 05:51:51;;;;;;;8.30;3.40;;;;;;;18.75;60.70;102287.63;5012678;28;20042;-69
2022/01/01 05:54:19;;;;;;;5.97;3.47;;;;;;;18.73;60.53;102287.72;5012816;28;20774;-70
2022/01/01 05:56:44;;;;;;;6.68;4.00;;;;;;;18.72;60.39;102286.03;5011745;28;20275;-70
2022/01/01 05:59:10;;;;;;;8.60;3.30;;;;;;;18.73;60.70;102285.09;5012773;28;20029;-70
2022/01/01 06:01:41;;;;;;;7.23;3.60;;;;;;;18.70;60.65;102280.00;5012423;28;20521;-69
2022/01/01 06:04:06;;;;;;;7.72;3.35;;;;;;;18.72;60.56;102282.53;5011772;28;20751;-69
2022/01/01 06:06:31;;;;;;;7.57;3.20;;;;;;;18.71;60.52;102276.41;5012722;28;20038;-68
2022/01/01 06:08:57;;;;;;;7.57;3.08;;;;;;;18.71;60.58;102280.81;5012577;28;20070;-70
2022/01/01 06:11:22;;;;;;;6.32;3.28;;;;;;;18.71;60.63;102262.34;5011779;28;20474;-70
2022/01/01 06:13:47;;;;;;;9.00;3.53;;;;;;;18.71;60.43;102262.34;5012272;28;20029;-69
2022/01/01 06:16:13;;;;;;;10.13;3.50;;;;;;;18.70;59.92;102258.88;5012377;28;20084;-69
2022/01/01 06:18:40;;;;;;;7.30;3.33;;;;;;;18.74;60.16;102264.78;5014347;28;20045;-69
2022/01/01 06:21:06;;;;;;;6.57;3.58;;;;;;;18.76;60.31;102263.78;5016298;28;20303;-69
2022/01/01 06:23:37;;;;;;;6.53;2.95;;;;;;;18.79;60.21;102252.19;5015950;28;20116;-70
2022/01/01 06:26:03;;;;;;;7.35;3.10;;;;;;;18.83;60.05;102264.25;5015223;28;20058;-70
2022/01/01 06:28:28;;;;;;;7.63;3.10;;;;;;;18.87;60.10;102264.91;5015836;28;20029;-70
2022/01/01 06:30:54;;;;;;;7.80;3.00;;;;;;;18.89;59.85;102269.19;5014932;28;20164;-70
2022/01/01 06:33:20;;;;;;;6.07;2.97;;;;;;;18.91;59.81;102272.56;5016211;28;20306;-70
2022/01/01 06:35:46;;;;;;;7.47;2.97;;;;;;;18.94;59.92;102271.53;5015786;28;20275;-70
2022/01/01 06:38:13;;;;;;;8.30;2.97;;;;;;;18.96;60.22;102270.50;5015215;28;20030;-69
2022/01/01 06:40:40;;;;;;;9.75;3.03;;;;;;;18.98;59.92;102273.06;5015812;28;20037;-69
2022/01/01 06:43:07;;;;;;;6.47;2.80;;;;;;;19.02;59.88;102277.19;5015762;28;20421;-70
2022/01/01 06:45:32;;;;;;;7.80;2.80;;;;;;;19.03;59.79;102270.97;5014937;28;20030;-70
2022/01/01 06:47:58;;;;;;;6.63;2.80;;;;;;;19.05;59.74;102277.00;5015866;28;20026;-70
2022/01/01 06:50:24;;;;;;;5.87;2.70;;;;;;;19.07;59.76;102275.09;5015729;28;20042;-70
2022/01/01 06:52:49;;;;;;;6.35;2.72;;;;;;;19.10;59.70;102282.00;5014747;28;20395;-70
2022/01/01 06:55:15;;;;;;;7.80;2.83;;;;;;;19.10;59.76;102280.19;5015622;28;20105;-69
2022/01/01 06:57:41;;;;;;;8.18;2.85;;;;;;;19.11;59.77;102268.69;5015172;28;20116;-69
2022/01/01 07:00:08;;;;;;;7.88;2.75;;;;;;;19.13;59.82;102281.81;5014705;28;20532;-69
2022/01/01 07:02:42;;;;;;;7.97;3.00;;;;;;;19.14;59.72;102276.41;5015460;28;20018;-69
2022/01/01 07:05:08;;;;;;;8.18;3.17;;;;;;;19.15;59.71;102283.41;5015565;28;20064;-69
2022/01/01 07:07:34;;;;;;;6.32;2.88;;;;;;;19.17;59.40;102289.44;5014843;28;20053;-69
2022/01/01 07:10:00;;;;;;;6.60;2.63;;;;;;;19.18;59.58;102291.16;5015238;28;20068;-70
2022/01/01 07:12:26;;;;;;;6.15;2.70;;;;;;;19.19;59.75;102297.28;5015178;28;20056;-69
2022/01/01 07:14:51;;;;;;;5.75;2.30;;;;;;;19.20;59.55;102306.88;5014323;28;20053;-69
2022/01/01 07:17:16;;;;;;;5.83;2.50;;;;;;;19.22;59.68;102310.28;5015281;28;20026;-69
2022/01/01 07:19:41;;;;;;;5.90;2.10;;;;;;;19.23;59.74;102311.13;5014783;28;20436;-69
2022/01/01 07:22:07;;;;;;;7.67;2.60;;;;;;;19.23;59.79;102309.34;5014453;28;20279;-69
2022/01/01 07:24:32;;;;;;;7.82;2.53;;;;;;;19.24;59.51;102300.47;5014641;28;20101;-68
2022/01/01 07:26:57;;;;;;;6.40;2.53;;;;;;;19.24;59.71;102294.34;5014447;28;20095;-69
2022/01/01 07:29:23;;;;;;;7.10;2.27;;;;;;;19.24;59.55;102297.00;5014240;28;20287;-69
2022/01/01 07:31:52;;;;;;;7.32;2.65;;;;;;;19.25;59.38;102296.03;5014553;28;20290;-69
2022/01/01 07:34:18;;;;;;;7.20;2.80;;;;;;;19.26;59.29;102293.28;5014271;28;20056;-69
2022/01/01 07:36:47;;;;;;;6.47;2.50;;;;;;;19.27;59.61;102299.44;5013340;28;20022;-69
2022/01/01 07:39:12;;;;;;;5.15;2.38;;;;;;;19.26;59.51;102314.44;5014628;28;20030;-69
2022/01/01 07:41:37;;;;;;;5.47;2.30;;;;;;;19.28;59.69;102314.34;5013689;28;20025;-69
2022/01/01 07:44:03;;;;;;;7.37;2.73;;;;;;;19.28;59.53;102311.69;5014786;28;20313;-69
2022/01/01 07:46:28;;;;;;;5.57;2.50;;;;;;;19.28;59.70;102322.25;5014688;28;20284;-69
2022/01/01 07:48:53;;;;;;;8.20;2.50;;;;;;;19.29;59.64;102327.44;5013441;28;20030;-70
2022/01/01 07:51:18;;;;;;;6.57;2.87;;;;;;;19.29;59.22;102322.16;5014617;28;20018;-69
2022/01/01 07:53:44;;;;;;;6.23;2.27;;;;;;;19.30;59.31;102323.03;5014165;28;20275;-69
2022/01/01 07:56:09;;;;;;;5.63;2.53;;;;;;;19.31;59.38;102325.59;5013617;28;20629;-68
2022/01/01 07:58:35;;;;;;;6.22;2.63;;;;;;;19.31;59.60;102315.00;5014160;28;20286;-68
2022/01/01 08:01:00;;;;;;;6.35;2.50;;;;;;;19.34;59.41;102319.22;5014506;28;20458;-68
2022/01/01 08:03:25;;;;;;;5.80;2.10;;;;;;;19.36;59.29;102326.13;5013569;28;20079;-69
2022/01/01 08:05:50;;;;;;;5.43;2.60;;;;;;;19.35;58.83;102327.06;5013961;28;20119;-68
2022/01/01 08:08:15;;;;;;;7.43;2.40;;;;;;;19.36;59.21;102326.13;5014105;28;20093;-69
2022/01/01 08:10:44;;;;;;;5.77;2.30;;;;;;;19.37;59.27;102326.97;5013125;28;20287;-66
2022/01/01 08:13:09;;;;;;;7.22;2.53;;;;;;;19.40;59.95;102327.63;5015025;28;20370;-69
2022/01/01 08:15:35;;;;;;;8.52;2.40;;;;;;;19.53;59.98;102324.19;5015062;28;20061;-67
2022/01/01 08:18:00;;;;;;;7.55;2.55;;;;;;;19.62;59.92;102317.50;5015336;28;20124;-68
2022/01/01 08:20:26;;;;;;;6.40;2.55;;;;;;;19.72;59.69;102322.06;5016436;28;20030;-68
2022/01/01 08:22:51;;;;;;;6.68;2.38;;;;;;;19.83;59.33;102323.22;5016187;28;20029;-68
2022/01/01 08:25:21;;;;;;;9.77;2.78;;;;;;;19.93;59.41;102325.16;5015167;28;20402;-67
2022/01/01 08:27:46;;;;;;;6.40;2.10;;;;;;;20.03;59.16;102321.91;5015246;28;20017;-68
2022/01/01 08:30:14;;;;;;;6.53;2.45;;;;;;;20.10;58.98;102320.53;5015320;28;20044;-68
2022/01/01 08:32:39;;;;;;;7.53;2.42;;;;;;;20.15;58.47;102326.38;5014988;28;20021;-69
2022/01/01 08:35:05;;;;;;;5.70;2.05;;;;;;;20.18;57.87;102330.63;5014844;28;20488;-71
2022/01/01 08:37:30;;;;;;;5.65;2.25;;;;;;;20.18;57.53;102322.69;5012849;28;20038;-68
2022/01/01 08:39:56;;;;;;;7.75;2.60;;;;;;;20.19;57.85;102329.69;5013831;28;20037;-68
2022/01/01 08:42:21;;;;;;;8.33;2.43;;;;;;;20.21;58.50;102328.59;5015132;28;20511;-70
2022/01/01 08:44:47;;;;;;;9.30;2.47;;;;;;;20.26;58.41;102329.13;5014867;28;20310;-70
2022/01/01 08:47:16;;;;;;;6.70;2.25;;;;;;;20.30;58.02;102328.00;5015277;28;20026;-69
2022/01/01 08:49:41;;;;;;;7.57;2.45;;;;;;;20.38;58.14;102337.22;5015319;28;20592;-68
2022/01/01 08:52:10;;;;;;;7.72;2.40;;;;;;;20.41;58.03;102331.69;5015842;28;20049;-67
2022/01/01 08:54:35;;;;;;;7.25;2.42;;;;;;;20.44;58.31;102337.66;5016627;28;20022;-68
2022/01/01 08:57:01;;;;;;;6.97;2.55;;;;;;;20.45;58.29;102339.34;5016831;28;20038;-67
2022/01/01 08:59:26;;;;;;;8.32;2.50;;;;;;;20.48;58.23;102330.34;5014972;28;20026;-69
2022/01/01 09:01:51;;;;;;;8.23;2.30;;;;;;;20.51;57.69;102334.59;5015110;28;20487;-68
2022/01/01 09:04:17;;;;;;;6.90;2.27;;;;;;;20.50;57.12;102320.50;5013639;28;20283;-76
2022/01/01 09:06:42;;;;;;;9.38;2.55;;;;;;;20.47;57.01;102318.03;5012834;28;20276;-76
2022/01/01 09:09:10;;;;;;;6.60;2.20;;;;;;;20.40;56.80;102320.28;5013223;28;20532;-73
2022/01/01 09:11:35;;;;;;;6.82;2.13;;;;;;;20.37;57.02;102315.19;5013625;28;20085;-76
2022/01/01 09:14:00;;;;;;;8.02;2.75;;;;;;;20.34;57.40;102314.56;5012834;28;20038;-76
2022/01/01 09:16:35;;;;;;;5.38;1.92;;;;;;;20.31;57.28;102310.31;5013661;28;20033;-75
2022/01/01 09:19:00;;;;;;;7.05;2.42;;;;;;;20.29;57.36;102307.75;5013816;28;20108;-75
2022/01/01 09:21:27;;;;;;;8.03;2.70;;;;;;;20.28;57.28;102314.03;5012531;28;20061;-72
2022/01/01 09:23:53;;;;;;;6.55;2.30;;;;;;;20.27;57.16;102308.81;5013052;28;20291;-67
2022/01/01 09:26:19;;;;;;;9.85;2.25;;;;;;;20.28;56.95;102319.31;5013195;28;20053;-67
2022/01/01 09:28:45;;;;;;;8.25;2.30;;;;;;;20.23;56.70;102310.81;5012302;28;20087;-68
2022/01/01 09:31:10;;;;;;;9.27;2.40;;;;;;;20.27;57.23;102306.19;5014149;28;20038;-66
2022/01/01 09:33:42;;;;;;;8.35;2.30;;;;;;;20.28;57.01;102308.72;5012664;28;20018;-67
2022/01/01 09:36:09;;;;;;;8.15;2.10;;;;;;;20.28;57.36;102311.38;5013315;28;20052;-69
2022/01/01 09:38:35;;;;;;;4.85;2.10;;;;;;;20.27;57.39;102317.59;5013087;28;20037;-71
2022/01/01 09:41:01;;;;;;;8.05;2.70;;;;;;;20.24;57.18;102307.22;5012987;28;20037;-75
2022/01/01 09:43:31;;;;;;;7.70;2.35;;;;;;;20.20;57.34;102308.41;5013178;28;20497;-69
2022/01/01 09:45:58;;;;;;;8.02;2.80;;;;;;;20.19;57.08;102308.50;5013371;28;20034;-70
2022/01/01 09:48:26;;;;;;;6.85;2.30;;;;;;;20.16;57.18;102293.66;5012145;28;20032;-71
2022/01/01 09:50:54;;;;;;;7.25;2.35;;;;;;;20.15;56.93;102304.34;5012447;28;20462;-70
2022/01/01 09:53:20;;;;;;;5.57;2.00;;;;;;;20.12;57.20;102305.41;5016812;28;20446;-69
2022/01/01 09:55:47;;;;;;;6.07;2.22;;;;;;;20.09;57.31;102295.88;5016240;28;20057;-68
2022/01/01 09:58:12;;;;;;;6.80;2.30;;;;;;;20.06;57.54;102292.56;5016983;28;20025;-71
2022/01/01 10:00:38;;;;;;;8.82;2.47;;;;;;;20.05;57.49;102293.53;5016647;28;20042;-71
2022/01/01 10:03:03;;;;;;;6.78;2.28;;;;;;;20.04;57.36;102297.13;5015841;28;20057;-68
2022/01/01 10:05:28;;;;;;;7.20;2.33;;;;;;;20.02;57.44;102294.56;5017396;28;20078;-68
2022/01/01 10:07:54;;;;;;;7.80;2.97;;;;;;;20.01;57.64;102286.75;5016560;28;20393;-70
2022/01/01 10:10:22;;;;;;;11.50;2.83;;;;;;;19.97;55.92;102275.53;5015829;28;20080;-74
2022/01/01 10:12:51;;;;;;;5.38;2.40;;;;;;;19.91;57.20;102279.41;5016285;28;20441;-71
2022/01/01 10:15:17;;;;;;;10.60;2.55;;;;;;;19.91;58.06;102268.81;5016468;28;20073;-70
2022/01/01 10:17:43;;;;;;;10.88;2.40;;;;;;;19.94;57.93;102262.50;5015428;28;20026;-70
2022/01/01 10:20:10;;;;;;;5.93;2.20;;;;;;;19.94;58.26;102267.78;5016437;28;20030;-68
2022/01/01 10:22:40;;;;;;;9.00;2.60;;;;;;;19.93;58.51;102264.31;5016025;28;20351;-68
2022/01/01 10:28:03;;;;;;;7.80;2.30;;;;;;;19.89;59.34;102256.66;5016125;28;20044;-68
2022/01/01 10:30:28;;;;;;;8.45;2.45;;;;;;;19.88;59.38;102253.16;5015185;28;20402;-70
2022/01/01 10:33:12;;;;;;;8.87;2.60;;;;;;;19.87;59.39;102250.63;5015836;28;20050;-70
2022/01/01 10:35:56;;;;;;;9.25;2.20;;;;;;;19.86;59.38;102248.94;5015735;28;20030;-70
2022/01/01 10:38:27;;;;;;;8.18;2.33;;;;;;;19.86;59.70;102246.28;5015138;28;20076;-70
2022/01/01 10:41:07;;;;;;;7.32;2.33;;;;;;;19.85;59.35;102249.88;5015471;28;20025;-71
2022/01/01 10:43:39;;;;;;;9.27;2.50;;;;;;;19.84;59.76;102254.31;5015807;28;20057;-70
2022/01/01 10:46:06;;;;;;;8.25;2.58;;;;;;;19.80;59.84;102250.19;5015210;28;20018;-69
2022/01/01 10:51:05;;;;;;;7.85;2.70;;;;;;;19.80;60.45;102228.19;5015056;28;20473;-71
2022/01/01 10:53:31;;;;;;;9.73;2.75;;;;;;;19.80;60.50;102233.47;5015289;28;20374;-73
2022/01/01 10:55:59;;;;;;;9.45;2.35;;;;;;;19.78;60.48;102222.97;5015618;28;20022;-72
2022/01/01 10:58:31;;;;;;;9.30;2.35;;;;;;;19.79;60.66;102223.81;5014784;28;20152;-71
2022/01/01 11:01:02;;;;;;;17.58;2.83;;;;;;;19.80;61.40;102207.84;5015593;28;20044;-69
2022/01/01 11:03:28;;;;;;;16.73;3.40;;;;;;;19.80;61.12;102221.06;5014688;28;20058;-71
2022/01/01 11:06:05;;;;;;;17.85;3.22;;;;;;;19.81;60.92;102227.22;5015065;28;20076;-68
2022/01/01 11:08:33;;;;;;;15.25;2.67;;;;;;;19.82;61.19;102213.03;5015212;28;20038;-67
2022/01/01 11:10:58;;;;;;;11.73;2.40;;;;;;;19.81;61.32;102220.13;5015488;28;20026;-69
2022/01/01 11:13:37;;;;;;;12.98;4.15;;;;;;;19.81;60.99;102220.13;5015028;28;20029;-70
2022/01/01 11:16:04;;;;;;;10.70;2.63;;;;;;;19.80;61.17;102213.13;5015406;28;20049;-68
2022/01/01 11:18:29;;;;;;;13.57;2.38;;;;;;;19.80;61.23;102210.50;5015020;28;20049;-69
2022/01/01 11:20:56;;;;;;;19.95;3.25;;;;;;;19.79;61.38;102211.47;5014784;28;20056;-69
2022/01/01 11:23:22;;;;;;;13.52;2.33;;;;;;;19.79;61.39;102207.94;5015804;28;20046;-69
2022/01/01 11:25:47;;;;;;;11.60;3.13;;;;;;;19.79;61.25;102208.81;5015860;28;20060;-72
2022/01/01 11:28:15;;;;;;;8.57;2.22;;;;;;;19.80;61.14;102210.50;5016748;28;20041;-69